KHTL/HTL METAR and TAF weather

Enter ICAO airport designator
Station Type Date Time Source
KHTL METAR 2022/06/28 13:53 UTC NOAA

KHTL 281353Z AUTO 24008KT 10SM CLR 19/09 A3021 RMK AO2 SLP230 T01890094


Station Type Date Time Source
KHTL Decoded METAR 2022/06/28 13:53 UTC NOAA

ROSCOMMON COUNTY AIRPORT, MI, United States (KHTL) 44-21N 084-40W 351M
Jun 28, 2022 - 09:53 AM EDT / 2022.06.28 1353 UTC
Wind: from the WSW (240 degrees) at 9 MPH (8 KT):0
Visibility: 10 mile(s):0
Sky conditions: clear
Temperature: 66.0 F (18.9 C)
Dew Point: 48.9 F (9.4 C)
Relative Humidity: 54%
Pressure (altimeter): 30.21 in. Hg (1023 hPa)
ob: KHTL 281353Z AUTO 24008KT 10SM CLR 19/09 A3021 RMK AO2 SLP230 T01890094
cycle: 14

Station Type Date Time Source
KHTL TAF UTC NOAA

Error!

Example: see airport list